createdAt,value
2022-12-19T00:01:36.987Z,9.17
2022-12-19T00:04:08.144Z,10.00
2022-12-19T00:06:37.335Z,11.00
2022-12-19T00:09:05.281Z,9.93
2022-12-19T00:11:32.916Z,10.93
2022-12-19T00:14:02.461Z,11.00
2022-12-19T00:16:30.267Z,10.13
2022-12-19T00:19:01.536Z,9.83
2022-12-19T00:21:34.703Z,10.97
2022-12-19T00:24:03.275Z,9.77
2022-12-19T00:26:34.670Z,10.73
2022-12-19T00:29:13.898Z,10.80
2022-12-19T00:31:41.102Z,11.27
2022-12-19T00:34:08.285Z,11.93
2022-12-19T00:36:35.556Z,9.43
2022-12-19T00:39:08.139Z,10.60
2022-12-19T00:41:37.080Z,9.57
2022-12-19T00:44:10.252Z,10.47
2022-12-19T00:46:37.407Z,9.70
2022-12-19T00:49:05.053Z,10.13
2022-12-19T00:51:34.670Z,8.87
2022-12-19T00:54:03.092Z,10.73
2022-12-19T00:56:37.762Z,9.63
2022-12-19T00:59:07.220Z,10.73
2022-12-19T01:01:36.705Z,10.27
2022-12-19T01:04:27.740Z,11.53
2022-12-19T01:06:52.168Z,9.03
2022-12-19T01:09:24.542Z,10.57
2022-12-19T01:12:09.694Z,11.60
2022-12-19T01:14:36.784Z,9.57
2022-12-19T01:17:03.916Z,11.00
2022-12-19T01:19:30.958Z,9.43
2022-12-19T01:21:58.053Z,11.10
2022-12-19T01:24:26.018Z,10.43
2022-12-19T01:26:53.108Z,9.73
2022-12-19T01:29:20.185Z,11.40
2022-12-19T01:31:47.857Z,11.10
2022-12-19T01:34:14.982Z,12.57
2022-12-19T01:36:42.023Z,10.43
2022-12-19T01:39:09.117Z,11.10
2022-12-19T01:41:36.258Z,11.67
2022-12-19T01:44:08.421Z,11.53
2022-12-19T01:46:45.743Z,11.53
2022-12-19T01:49:31.979Z,11.93
2022-12-19T01:52:10.351Z,10.47
2022-12-19T01:54:43.672Z,11.73
2022-12-19T01:57:14.163Z,9.70
2022-12-19T01:59:41.381Z,11.57
2022-12-19T02:02:13.165Z,11.20
2022-12-19T02:04:41.739Z,11.80
2022-12-19T02:07:15.601Z,12.70
2022-12-19T02:09:45.666Z,10.87
2022-12-19T02:12:13.316Z,11.23
2022-12-19T02:14:41.123Z,13.83
2022-12-19T02:17:28.620Z,12.93
2022-12-19T02:20:15.433Z,12.13
2022-12-19T02:22:53.924Z,10.80
2022-12-19T02:25:42.875Z,10.73
2022-12-19T02:28:40.442Z,11.90
2022-12-19T02:31:17.710Z,12.00
2022-12-19T02:34:09.545Z,11.90
2022-12-19T02:37:18.667Z,11.43
2022-12-19T02:39:52.374Z,9.93
2022-12-19T02:42:31.991Z,11.70
2022-12-19T02:45:02.397Z,10.83
2022-12-19T02:47:32.353Z,11.83
2022-12-19T02:50:00.904Z,10.53
2022-12-19T02:52:27.949Z,9.67
2022-12-19T02:54:59.026Z,11.63
2022-12-19T02:57:33.578Z,13.07
2022-12-19T03:00:00.790Z,11.27
2022-12-19T03:02:30.737Z,11.60
2022-12-19T03:05:12.282Z,11.60
2022-12-19T03:07:57.191Z,10.83
2022-12-19T03:10:54.450Z,11.80
2022-12-19T03:13:34.332Z,10.50
2022-12-19T03:16:03.304Z,11.30
2022-12-19T03:18:32.169Z,10.67
2022-12-19T03:21:04.541Z,11.73
2022-12-19T03:23:31.818Z,13.33
2022-12-19T03:26:06.533Z,11.97
2022-12-19T03:28:46.691Z,11.17
2022-12-19T03:31:16.851Z,11.30
2022-12-19T03:33:45.197Z,11.73
2022-12-19T03:36:18.063Z,11.70
2022-12-19T03:38:46.390Z,10.93
2022-12-19T03:41:15.758Z,12.63
2022-12-19T03:43:43.938Z,11.50
2022-12-19T03:46:20.172Z,11.00
2022-12-19T03:48:49.853Z,11.70
2022-12-19T03:51:54.888Z,11.20
2022-12-19T03:54:32.774Z,11.83
2022-12-19T03:57:26.746Z,10.50
2022-12-19T04:00:04.455Z,11.53
2022-12-19T04:02:42.577Z,10.40
2022-12-19T04:05:12.783Z,11.30
2022-12-19T04:07:41.302Z,11.07
2022-12-19T04:10:12.046Z,11.30
2022-12-19T04:12:45.606Z,12.30
2022-12-19T04:15:12.897Z,12.20
2022-12-19T04:17:44.754Z,11.83
2022-12-19T04:20:13.987Z,12.13
2022-12-19T04:22:55.959Z,12.57
2022-12-19T04:25:29.727Z,11.13
2022-12-19T04:28:03.965Z,13.50
2022-12-19T04:30:36.476Z,11.87
2022-12-19T04:33:04.374Z,10.80
2022-12-19T04:35:31.875Z,10.97
2022-12-19T04:37:59.040Z,11.20
2022-12-19T04:40:26.076Z,12.60
2022-12-19T04:42:53.137Z,11.83
2022-12-19T04:45:20.194Z,10.53
2022-12-19T04:47:47.617Z,11.70
2022-12-19T04:50:14.788Z,12.20
2022-12-19T04:52:41.844Z,10.53
2022-12-19T04:55:09.114Z,11.93
2022-12-19T04:57:36.166Z,11.63
2022-12-19T05:00:08.582Z,11.20
2022-12-19T05:02:37.532Z,11.20
2022-12-19T05:05:04.875Z,13.30
2022-12-19T05:07:31.923Z,11.57
2022-12-19T05:09:58.978Z,10.70
2022-12-19T05:12:26.090Z,11.53
2022-12-19T05:14:53.133Z,12.00
2022-12-19T05:17:20.202Z,13.17
2022-12-19T05:19:47.368Z,11.27
2022-12-19T05:22:14.435Z,10.43
2022-12-19T05:24:41.498Z,12.10
2022-12-19T05:27:08.599Z,11.27
2022-12-19T05:29:35.699Z,11.87
2022-12-19T05:32:02.774Z,10.53
2022-12-19T05:34:29.847Z,11.70
2022-12-19T05:36:56.955Z,12.93
2022-12-19T05:39:24.590Z,12.53
2022-12-19T05:41:51.663Z,10.87
2022-12-19T05:44:18.740Z,10.93
2022-12-19T05:46:45.549Z,12.30
2022-12-19T05:49:12.644Z,13.00
2022-12-19T05:51:40.233Z,11.07
2022-12-19T05:54:07.302Z,12.00
2022-12-19T05:56:34.344Z,11.70
2022-12-19T05:59:01.026Z,12.40
2022-12-19T06:01:28.413Z,11.90
2022-12-19T06:03:55.891Z,12.23
2022-12-19T06:06:25.134Z,13.93
2022-12-19T06:08:56.087Z,11.53
2022-12-19T06:11:23.414Z,11.33
2022-12-19T06:13:50.546Z,12.80
2022-12-19T06:16:20.471Z,11.90
2022-12-19T06:18:47.480Z,12.83
2022-12-19T06:21:14.593Z,12.73
2022-12-19T06:23:41.838Z,11.87
2022-12-19T06:26:16.864Z,12.40
2022-12-19T06:28:46.363Z,11.10
2022-12-19T06:31:13.949Z,12.87
2022-12-19T06:33:41.111Z,13.03
2022-12-19T06:36:12.183Z,12.50
2022-12-19T06:38:39.228Z,13.40
2022-12-19T06:41:25.261Z,12.63
2022-12-19T06:43:53.843Z,11.93
2022-12-19T06:46:20.891Z,12.30
2022-12-19T06:48:48.095Z,13.07
2022-12-19T06:51:15.558Z,12.07
2022-12-19T06:53:42.682Z,14.10
2022-12-19T06:56:10.891Z,12.17
2022-12-19T06:58:38.228Z,12.30
2022-12-19T07:01:05.559Z,12.17
2022-12-19T07:03:41.729Z,12.73
2022-12-19T07:06:08.909Z,11.90
2022-12-19T07:08:35.977Z,13.20
2022-12-19T07:11:03.152Z,11.83
2022-12-19T07:13:30.252Z,12.87
2022-12-19T07:16:01.310Z,13.00
2022-12-19T07:18:30.373Z,13.00
2022-12-19T07:20:57.453Z,13.60
2022-12-19T07:23:24.661Z,12.87
2022-12-19T07:25:51.876Z,12.57
2022-12-19T07:28:19.069Z,12.60
2022-12-19T07:30:46.198Z,12.27
2022-12-19T07:33:19.733Z,11.87
2022-12-19T07:35:48.451Z,11.13
2022-12-19T07:38:15.189Z,11.40
2022-12-19T07:40:42.396Z,11.00
2022-12-19T07:43:09.553Z,11.17
2022-12-19T07:45:38.306Z,11.40
2022-12-19T07:48:06.838Z,10.57
2022-12-19T07:50:34.431Z,10.73
2022-12-19T07:53:01.692Z,10.57
2022-12-19T07:55:28.878Z,11.47
2022-12-19T07:57:55.985Z,10.97
2022-12-19T08:00:23.157Z,11.93
2022-12-19T08:02:49.974Z,9.93
2022-12-19T08:05:17.176Z,9.57
2022-12-19T08:07:44.254Z,9.97
2022-12-19T08:10:12.561Z,9.87
2022-12-19T08:12:39.329Z,8.97
2022-12-19T08:15:07.172Z,10.53
2022-12-19T08:17:35.758Z,9.37
2022-12-19T08:20:02.523Z,8.73
2022-12-19T08:22:30.348Z,8.00
2022-12-19T08:24:57.836Z,8.33
2022-12-19T08:27:25.035Z,7.67
2022-12-19T08:29:52.233Z,7.93
2022-12-19T08:32:21.603Z,7.77
2022-12-19T08:34:49.917Z,7.57
2022-12-19T08:37:17.197Z,8.00
2022-12-19T08:39:44.279Z,7.30
2022-12-19T08:42:11.404Z,8.83
2022-12-19T08:44:38.519Z,7.40
2022-12-19T08:47:05.315Z,6.53
2022-12-19T08:49:32.479Z,6.73
2022-12-19T08:51:59.623Z,7.03
2022-12-19T08:54:27.085Z,6.87
2022-12-19T08:56:54.193Z,6.70
2022-12-19T08:59:30.792Z,6.40
2022-12-19T09:01:58.896Z,5.70
2022-12-19T09:05:57.962Z,5.87
2022-12-19T09:07:15.703Z,6.50
2022-12-19T09:09:43.508Z,5.90
2022-12-19T09:12:10.213Z,6.27
2022-12-19T09:14:37.879Z,6.17
2022-12-19T09:17:05.069Z,6.30
2022-12-19T09:19:32.305Z,5.70
2022-12-19T09:21:59.476Z,5.60
2022-12-19T09:24:26.664Z,5.90
2022-12-19T09:26:53.730Z,5.43
2022-12-19T09:29:21.932Z,6.87
2022-12-19T09:31:56.292Z,6.93
2022-12-19T09:34:27.421Z,5.13
2022-12-19T09:37:06.527Z,6.27
2022-12-19T09:39:34.338Z,5.17
2022-12-19T09:42:07.033Z,5.33
2022-12-19T09:44:34.167Z,4.47
2022-12-19T09:47:14.103Z,4.97
2022-12-19T09:49:43.489Z,5.23
2022-12-19T09:52:33.212Z,4.83
2022-12-19T09:55:16.793Z,5.13
2022-12-19T09:58:16.201Z,5.10
2022-12-19T10:00:56.462Z,5.00
2022-12-19T10:03:43.558Z,4.83
2022-12-19T10:07:22.357Z,4.97
2022-12-19T10:10:39.966Z,4.43
2022-12-19T10:12:48.260Z,4.37
2022-12-19T10:15:47.886Z,4.53
2022-12-19T10:18:52.683Z,5.30
2022-12-19T10:22:08.106Z,4.87
2022-12-19T10:25:09.439Z,4.60
2022-12-19T10:27:58.726Z,4.03
2022-12-19T10:30:31.696Z,5.23
2022-12-19T10:32:59.815Z,4.93
2022-12-19T10:35:43.705Z,5.87
2022-12-19T10:38:28.481Z,5.30
2022-12-19T10:41:10.302Z,6.40
2022-12-19T10:43:44.044Z,5.80
2022-12-19T10:46:20.037Z,5.87
2022-12-19T10:48:50.478Z,5.60
2022-12-19T10:51:23.919Z,5.60
2022-12-19T10:53:57.157Z,6.20
2022-12-19T10:56:33.173Z,6.33
2022-12-19T10:59:04.889Z,6.27
2022-12-19T11:01:38.919Z,6.60
2022-12-19T11:04:24.531Z,5.83
2022-12-19T11:07:03.904Z,5.80
2022-12-19T11:09:41.725Z,5.53
2022-12-19T11:16:38.387Z,6.07
2022-12-19T11:18:55.574Z,6.30
2022-12-19T11:26:14.588Z,6.70
2022-12-19T11:30:05.776Z,6.57
2022-12-19T11:30:36.479Z,6.13
2022-12-19T11:30:45.320Z,7.10
2022-12-19T11:32:42.098Z,7.53
2022-12-19T11:35:21.015Z,8.07
2022-12-19T11:37:55.569Z,8.40
2022-12-19T11:40:36.466Z,8.57
2022-12-19T11:46:40.364Z,8.20
2022-12-19T11:49:16.185Z,9.27
2022-12-19T11:51:55.909Z,7.83
2022-12-19T11:54:30.305Z,8.87
2022-12-19T11:56:57.894Z,9.00
2022-12-19T11:59:38.092Z,8.90
2022-12-19T12:02:07.815Z,8.80
2022-12-19T12:05:28.560Z,9.50
2022-12-19T12:09:52.650Z,8.63
2022-12-19T12:19:39.222Z,7.80
2022-12-19T12:24:15.841Z,10.00
2022-12-19T12:28:10.677Z,9.43
2022-12-19T12:31:31.737Z,9.63
2022-12-19T12:31:42.779Z,9.43
2022-12-19T12:31:49.677Z,9.70
2022-12-19T12:31:58.101Z,9.50
2022-12-19T12:35:46.568Z,9.50
2022-12-19T12:38:27.022Z,9.47
2022-12-19T12:41:49.471Z,9.93
2022-12-19T12:44:16.552Z,10.07
2022-12-19T12:46:49.655Z,9.67
2022-12-19T12:49:37.358Z,10.27
2022-12-19T12:52:07.922Z,10.03
2022-12-19T12:54:39.075Z,9.37
2022-12-19T12:57:06.246Z,10.30
2022-12-19T12:59:33.393Z,9.60
2022-12-19T13:02:11.667Z,10.50
2022-12-19T13:04:58.897Z,10.27
2022-12-19T13:07:41.281Z,9.47
2022-12-19T13:10:23.304Z,10.07
2022-12-19T13:13:14.475Z,9.97
2022-12-19T13:15:45.751Z,9.20
2022-12-19T13:18:12.851Z,11.60
2022-12-19T13:20:45.600Z,13.03
2022-12-19T13:23:41.515Z,14.83
2022-12-19T13:26:45.090Z,11.80
2022-12-19T13:29:30.413Z,10.13
2022-12-19T13:32:15.255Z,10.40
2022-12-19T13:34:58.225Z,10.03
2022-12-19T13:39:49.403Z,9.90
2022-12-19T13:40:33.126Z,9.23
2022-12-19T13:43:41.262Z,9.57
2022-12-19T13:46:26.851Z,10.20
2022-12-19T13:49:12.288Z,10.57
2022-12-19T13:51:52.189Z,9.47
2022-12-19T13:54:34.621Z,10.23
2022-12-19T13:57:08.201Z,9.47
2022-12-19T13:59:39.606Z,9.17
2022-12-19T14:02:16.248Z,9.23
2022-12-19T14:04:44.457Z,10.23
2022-12-19T14:07:39.317Z,10.10
2022-12-19T14:11:37.895Z,8.73
2022-12-19T14:13:48.719Z,9.00
2022-12-19T14:16:39.738Z,9.47
2022-12-19T14:19:27.014Z,9.10
2022-12-19T14:22:11.238Z,10.07
2022-12-19T14:24:52.692Z,9.13
2022-12-19T14:28:18.230Z,8.40
2022-12-19T14:30:28.055Z,9.33
2022-12-19T14:33:43.820Z,9.00
2022-12-19T14:36:10.478Z,9.10
2022-12-19T14:39:25.485Z,9.57
2022-12-19T14:41:54.620Z,9.37
2022-12-19T14:52:08.478Z,8.43
2022-12-19T14:53:34.380Z,8.67
2022-12-19T14:54:23.585Z,9.53
2022-12-19T14:54:23.895Z,9.13
2022-12-19T14:56:12.964Z,9.00
2022-12-19T14:58:53.401Z,8.90
2022-12-19T15:01:29.598Z,9.17
2022-12-19T15:04:52.946Z,12.20
2022-12-19T15:07:07.808Z,9.87
2022-12-19T15:11:03.011Z,8.87
2022-12-19T15:14:47.271Z,8.63
2022-12-19T15:16:01.885Z,8.10
2022-12-19T15:18:41.094Z,7.70
2022-12-19T15:21:14.695Z,7.83
2022-12-19T15:23:42.073Z,9.90
2022-12-19T15:26:17.112Z,8.30
2022-12-19T15:28:48.090Z,8.27
2022-12-19T15:31:38.458Z,8.43
2022-12-19T15:37:16.973Z,8.50
2022-12-19T15:39:44.945Z,9.80
2022-12-19T15:42:22.605Z,8.07
2022-12-19T15:44:51.697Z,7.63
2022-12-19T15:47:24.806Z,8.20
2022-12-19T15:49:51.456Z,7.87
2022-12-19T15:52:19.701Z,9.33
2022-12-19T15:54:48.397Z,7.43
2022-12-19T15:57:38.327Z,7.40
2022-12-19T16:00:18.391Z,8.43
2022-12-19T16:05:33.122Z,9.23
2022-12-19T16:08:00.398Z,8.60
2022-12-19T16:10:27.564Z,8.27
2022-12-19T16:12:58.177Z,7.90
2022-12-19T16:15:33.851Z,8.47
2022-12-19T16:18:02.992Z,7.50
2022-12-19T16:20:39.241Z,8.30
2022-12-19T16:23:06.635Z,8.33
2022-12-19T16:25:39.650Z,8.70
2022-12-19T16:28:14.503Z,7.57
2022-12-19T16:30:43.362Z,8.70
2022-12-19T16:33:30.008Z,7.70
2022-12-19T16:36:06.230Z,8.47
2022-12-19T16:38:33.942Z,8.40
2022-12-19T16:41:01.689Z,8.20
2022-12-19T16:43:33.626Z,8.97
2022-12-19T16:46:01.940Z,8.07
2022-12-19T16:48:29.802Z,7.63
2022-12-19T16:50:58.809Z,8.93
2022-12-19T16:53:25.988Z,9.20
2022-12-19T16:55:55.497Z,9.20
2022-12-19T16:58:25.057Z,8.20
2022-12-19T17:00:54.770Z,7.73
2022-12-19T17:03:41.336Z,8.40
2022-12-19T17:06:16.353Z,8.80
2022-12-19T17:08:43.880Z,8.73
2022-12-19T17:11:20.687Z,8.23
2022-12-19T17:14:08.457Z,9.83
2022-12-19T17:16:35.667Z,8.47
2022-12-19T17:19:02.929Z,7.77
2022-12-19T17:21:29.833Z,8.47
2022-12-19T17:23:56.895Z,9.13
2022-12-19T17:26:23.977Z,8.23
2022-12-19T17:28:51.084Z,8.80
2022-12-19T17:31:27.923Z,8.03
2022-12-19T17:33:57.610Z,7.90
2022-12-19T17:36:32.684Z,8.03
2022-12-19T17:39:02.324Z,7.67
2022-12-19T17:41:30.353Z,7.63
2022-12-19T17:43:57.761Z,7.97
2022-12-19T17:46:24.755Z,9.20
2022-12-19T17:48:53.009Z,10.23
2022-12-19T17:51:21.623Z,8.23
2022-12-19T17:53:49.725Z,9.27
2022-12-19T17:56:18.628Z,7.40
2022-12-19T17:58:46.033Z,7.37
2022-12-19T18:01:23.525Z,7.90
2022-12-19T18:03:52.226Z,8.10
2022-12-19T18:06:19.604Z,8.53
2022-12-19T18:08:46.725Z,7.43
2022-12-19T18:11:24.686Z,7.63
2022-12-19T18:13:52.388Z,7.77
2022-12-19T18:16:24.518Z,7.57
2022-12-19T18:18:51.658Z,8.27
2022-12-19T18:21:22.198Z,8.83
2022-12-19T18:23:49.014Z,8.57
2022-12-19T18:26:16.119Z,8.03
2022-12-19T18:28:43.221Z,8.33
2022-12-19T18:31:16.382Z,8.50
2022-12-19T18:33:46.544Z,8.13
2022-12-19T18:36:25.021Z,8.30
2022-12-19T18:38:52.766Z,7.97
2022-12-19T18:41:20.740Z,9.40
2022-12-19T18:43:47.940Z,8.47
2022-12-19T18:46:17.183Z,8.83
2022-12-19T18:48:45.240Z,9.53
2022-12-19T18:51:17.368Z,7.67
2022-12-19T18:53:45.381Z,8.73
2022-12-19T18:56:12.398Z,8.90
2022-12-19T18:58:39.274Z,8.43
2022-12-19T19:01:11.590Z,9.47
2022-12-19T19:03:39.766Z,9.00
2022-12-19T19:06:17.936Z,9.07
2022-12-19T19:08:45.012Z,8.23
2022-12-19T19:11:30.847Z,8.50
2022-12-19T19:13:57.911Z,8.23
2022-12-19T19:16:27.005Z,9.27
2022-12-19T19:18:56.028Z,7.43
2022-12-19T19:21:29.460Z,7.57
2022-12-19T19:24:03.734Z,7.60
2022-12-19T19:26:30.784Z,7.47
2022-12-19T19:28:58.763Z,7.00
2022-12-19T19:31:27.839Z,8.23
2022-12-19T19:34:03.023Z,6.63
2022-12-19T19:36:33.006Z,7.23
2022-12-19T19:39:00.128Z,7.70
2022-12-19T19:41:29.788Z,7.27
2022-12-19T19:43:58.592Z,7.97
2022-12-19T19:46:26.292Z,7.90
2022-12-19T19:48:53.383Z,8.13
2022-12-19T19:51:20.754Z,8.07
2022-12-19T19:53:47.901Z,8.30
2022-12-19T19:56:15.065Z,8.13
2022-12-19T19:58:42.219Z,7.30
2022-12-19T20:01:11.039Z,7.17
2022-12-19T20:03:39.894Z,10.25
2022-12-19T20:06:07.259Z,10.73
2022-12-19T20:08:39.598Z,8.83
2022-12-19T20:11:08.229Z,7.43
2022-12-19T20:13:35.277Z,7.27
2022-12-19T20:16:07.902Z,7.53
2022-12-19T20:18:35.780Z,6.53
2022-12-19T20:21:06.573Z,6.50
2022-12-19T20:23:36.566Z,7.20
2022-12-19T20:26:04.798Z,6.10
2022-12-19T20:28:32.140Z,6.60
2022-12-19T20:30:59.567Z,5.73
2022-12-19T20:33:26.880Z,6.03
2022-12-19T20:35:58.386Z,6.77
2022-12-19T20:38:25.259Z,6.10
2022-12-19T20:40:55.603Z,6.57
2022-12-19T20:43:23.414Z,5.10
2022-12-19T20:45:50.595Z,5.70
2022-12-19T20:48:18.311Z,5.53
2022-12-19T20:50:45.405Z,6.03
2022-12-19T20:53:12.466Z,5.33
2022-12-19T20:55:39.539Z,5.50
2022-12-19T20:58:06.575Z,6.07
2022-12-19T21:00:33.663Z,5.53
2022-12-19T21:03:27.270Z,5.70
2022-12-19T21:05:54.997Z,5.00
2022-12-19T21:08:22.770Z,5.43
2022-12-19T21:10:49.452Z,5.37
2022-12-19T21:13:16.593Z,5.30
2022-12-19T21:15:43.819Z,5.00
2022-12-19T21:18:10.804Z,5.73
2022-12-19T21:20:38.055Z,5.07
2022-12-19T21:23:05.296Z,5.23
2022-12-19T21:25:32.472Z,4.83
2022-12-19T21:27:59.550Z,4.93
2022-12-19T21:30:26.240Z,4.87
2022-12-19T21:32:52.930Z,5.37
2022-12-19T21:35:20.043Z,5.40
2022-12-19T21:37:51.095Z,6.10
2022-12-19T21:40:21.571Z,5.70
2022-12-19T21:42:48.638Z,6.00
2022-12-19T21:45:16.114Z,5.63
2022-12-19T21:47:43.247Z,6.07
2022-12-19T21:50:12.593Z,5.80
2022-12-19T21:52:40.125Z,6.33
2022-12-19T21:55:08.366Z,6.03
2022-12-19T21:57:41.772Z,5.77
2022-12-19T22:00:10.797Z,5.57
2022-12-19T22:02:38.277Z,5.57
2022-12-19T22:05:06.459Z,5.50
2022-12-19T22:07:33.264Z,5.60
2022-12-19T22:10:00.743Z,5.63
2022-12-19T22:12:27.809Z,5.87
2022-12-19T22:14:54.867Z,5.10
2022-12-19T22:17:21.937Z,5.63
2022-12-19T22:19:48.535Z,5.57
2022-12-19T22:22:15.653Z,5.77
2022-12-19T22:24:42.733Z,5.73
2022-12-19T22:27:09.843Z,5.30
2022-12-19T22:29:37.311Z,5.17
2022-12-19T22:32:04.599Z,5.93
2022-12-19T22:34:31.812Z,5.13
2022-12-19T22:36:58.988Z,5.77
2022-12-19T22:39:26.122Z,5.10
2022-12-19T22:41:53.240Z,6.10
2022-12-19T22:44:24.405Z,5.73
2022-12-19T22:46:51.882Z,5.73
2022-12-19T22:49:18.701Z,5.97
2022-12-19T22:51:45.493Z,5.97
2022-12-19T22:54:12.712Z,5.63
2022-12-19T22:56:40.133Z,7.37
2022-12-19T22:59:08.449Z,6.47
2022-12-19T23:01:38.254Z,7.10
2022-12-19T23:04:06.707Z,6.60
2022-12-19T23:06:35.297Z,5.03
2022-12-19T23:09:02.815Z,5.03
2022-12-19T23:11:34.244Z,5.57
2022-12-19T23:14:02.733Z,5.23
2022-12-19T23:16:30.182Z,5.70
2022-12-19T23:18:57.533Z,5.53
2022-12-19T23:21:25.321Z,5.40
2022-12-19T23:23:54.110Z,5.37
2022-12-19T23:26:27.406Z,5.67
2022-12-19T23:29:10.941Z,5.47
2022-12-19T23:31:40.699Z,5.70
2022-12-19T23:34:07.859Z,5.57
2022-12-19T23:39:22.006Z,6.23
2022-12-19T23:41:49.104Z,5.57
2022-12-19T23:44:16.483Z,5.47
2022-12-19T23:46:43.580Z,6.37
2022-12-19T23:49:10.645Z,6.03
2022-12-19T23:51:37.873Z,5.47
2022-12-19T23:54:05.118Z,5.87
2022-12-19T23:56:32.442Z,6.30
2022-12-19T23:58:59.724Z,5.43
